createdAt,value
2018-04-01T00:00:27.503Z,14.43
2018-04-01T00:02:55.356Z,15.70
2018-04-01T00:05:22.477Z,13.13
2018-04-01T00:07:49.574Z,12.23
2018-04-01T00:10:16.700Z,10.33
2018-04-01T00:12:43.799Z,13.30
2018-04-01T00:15:10.929Z,13.87
2018-04-01T00:17:38.028Z,12.00
2018-04-01T00:20:05.124Z,13.47
2018-04-01T00:22:32.254Z,11.47
2018-04-01T00:25:00.123Z,15.00
2018-04-01T00:27:28.013Z,16.00
2018-04-01T00:29:55.122Z,17.50
2018-04-01T00:32:23.728Z,13.70
2018-04-01T00:34:51.612Z,13.80
2018-04-01T00:37:18.707Z,12.37
2018-04-01T00:39:45.834Z,11.77
2018-04-01T00:42:12.931Z,12.50
2018-04-01T00:44:40.795Z,11.70
2018-04-01T00:47:07.919Z,7.83
2018-04-01T00:49:35.020Z,13.00
2018-04-01T00:52:02.147Z,11.40
2018-04-01T00:54:30.013Z,13.70
2018-04-01T00:56:57.880Z,12.13
2018-04-01T00:59:25.775Z,14.80
2018-04-01T01:01:52.876Z,17.27
2018-04-01T01:04:20.013Z,23.23
2018-04-01T01:06:47.115Z,20.77
2018-04-01T01:09:14.207Z,16.23
2018-04-01T01:11:41.331Z,23.30
2018-04-01T01:14:08.423Z,19.40
2018-04-01T01:16:35.558Z,23.97
2018-04-01T01:19:02.687Z,21.80
2018-04-01T01:21:29.789Z,23.37
2018-04-01T01:23:57.679Z,23.97
2018-04-01T01:26:24.779Z,19.30
2018-04-01T01:28:51.911Z,23.77
2018-04-01T01:31:19.019Z,21.90
2018-04-01T01:33:46.116Z,17.83
2018-04-01T01:36:13.232Z,19.23
2018-04-01T01:38:40.328Z,19.93
2018-04-01T01:41:07.457Z,25.10
2018-04-01T01:43:34.548Z,16.10
2018-04-01T01:46:01.640Z,15.47
2018-04-01T01:48:28.779Z,19.77
2018-04-01T01:50:55.880Z,15.67
2018-04-01T01:53:23.000Z,16.23
2018-04-01T01:55:50.093Z,19.40
2018-04-01T01:58:17.991Z,14.90
2018-04-01T02:00:45.088Z,13.50
2018-04-01T02:03:12.188Z,15.90
2018-04-01T02:05:39.308Z,14.77
2018-04-01T02:08:07.176Z,19.60
2018-04-01T02:10:34.344Z,15.70
2018-04-01T02:13:01.440Z,20.60
2018-04-01T02:15:28.552Z,15.80
2018-04-01T02:17:55.680Z,12.03
2018-04-01T02:20:23.548Z,14.60
2018-04-01T02:22:51.446Z,16.03
2018-04-01T02:25:18.545Z,16.50
2018-04-01T02:27:46.418Z,14.00
2018-04-01T02:30:13.533Z,12.93
2018-04-01T02:32:40.628Z,12.77
2018-04-01T02:35:08.529Z,13.50
2018-04-01T02:37:35.629Z,14.03
2018-04-01T02:40:02.724Z,12.90
2018-04-01T02:42:29.872Z,14.63
2018-04-01T02:44:56.972Z,16.40
2018-04-01T02:47:24.077Z,14.80
2018-04-01T02:49:51.214Z,13.00
2018-04-01T02:52:18.364Z,13.03
2018-04-01T02:54:45.572Z,16.07
2018-04-01T02:57:13.452Z,16.30
2018-04-01T02:59:41.348Z,13.87
2018-04-01T03:02:08.454Z,13.53
2018-04-01T03:04:35.567Z,14.67
2018-04-01T03:07:02.703Z,13.57
2018-04-01T03:09:29.796Z,18.60
2018-04-01T03:11:56.948Z,13.37
2018-04-01T03:14:24.209Z,14.37
2018-04-01T03:16:51.339Z,14.50
2018-04-01T03:19:18.700Z,13.40
2018-04-01T03:21:46.639Z,14.30
2018-04-01T03:24:13.813Z,12.80
2018-04-01T03:26:41.044Z,14.33
2018-04-01T03:29:08.188Z,13.67
2018-04-01T03:31:35.286Z,13.87
2018-04-01T03:34:02.375Z,15.00
2018-04-01T03:36:29.491Z,14.27
2018-04-01T03:38:57.360Z,11.87
2018-04-01T03:41:25.257Z,13.20
2018-04-01T03:43:52.352Z,13.27
2018-04-01T03:46:20.965Z,12.97
2018-04-01T03:48:48.860Z,15.67
2018-04-01T03:51:15.948Z,13.30
2018-04-01T03:53:43.846Z,14.40
2018-04-01T03:56:11.708Z,13.60
2018-04-01T03:58:39.612Z,16.10
2018-04-01T04:01:06.714Z,11.20
2018-04-01T04:03:34.576Z,13.63
2018-04-01T04:06:01.699Z,14.53
2018-04-01T04:08:28.792Z,16.20
2018-04-01T04:10:56.680Z,15.17
2018-04-01T04:13:23.779Z,17.20
2018-04-01T04:15:50.900Z,15.03
2018-04-01T04:18:17.995Z,17.80
2018-04-01T04:20:45.892Z,15.13
2018-04-01T04:23:12.988Z,14.93
2018-04-01T04:25:40.092Z,19.53
2018-04-01T04:28:07.216Z,13.77
2018-04-01T04:30:35.083Z,16.37
2018-04-01T04:33:02.978Z,19.77
2018-04-01T04:35:30.076Z,20.60
2018-04-01T04:37:57.179Z,11.47
2018-04-01T04:40:24.301Z,15.13
2018-04-01T04:42:52.195Z,14.70
2018-04-01T04:45:19.296Z,16.20
2018-04-01T04:47:46.391Z,15.77
2018-04-01T04:50:13.503Z,15.23
2018-04-01T04:52:40.604Z,15.40
2018-04-01T04:55:07.730Z,16.83
2018-04-01T04:57:34.827Z,15.77
2018-04-01T05:00:01.922Z,18.37
2018-04-01T05:02:29.052Z,13.77
2018-04-01T05:04:56.924Z,20.13
2018-04-01T05:07:24.811Z,15.67
2018-04-01T05:09:51.917Z,16.83
2018-04-01T05:12:19.037Z,15.63
2018-04-01T05:14:46.132Z,14.73
2018-04-01T05:17:14.020Z,14.63
2018-04-01T05:19:41.124Z,15.63
2018-04-01T05:22:08.245Z,18.80
2018-04-01T05:24:35.340Z,16.70
2018-04-01T05:27:02.435Z,17.90
2018-04-01T05:29:29.559Z,17.60
2018-04-01T05:31:57.427Z,16.53
2018-04-01T05:34:25.321Z,18.80
2018-04-01T05:36:52.482Z,16.13
2018-04-01T05:39:19.589Z,17.90
2018-04-01T05:41:47.479Z,16.83
2018-04-01T05:44:14.571Z,14.40
2018-04-01T05:46:41.704Z,22.63
2018-04-01T05:49:08.813Z,13.70
2018-04-01T05:51:35.966Z,17.37
2018-04-01T05:54:03.836Z,13.93
2018-04-01T05:56:30.935Z,16.17
2018-04-01T05:58:58.820Z,10.37
2018-04-01T06:01:26.685Z,17.93
2018-04-01T06:03:53.812Z,15.87
2018-04-01T06:06:20.905Z,15.60
2018-04-01T06:08:48.772Z,19.43
2018-04-01T06:11:16.666Z,11.80
2018-04-01T06:13:43.776Z,17.33
2018-04-01T06:16:11.672Z,14.57
2018-04-01T06:18:38.764Z,12.70
2018-04-01T06:21:06.663Z,15.43
2018-04-01T06:23:34.684Z,22.00
2018-04-01T06:26:01.779Z,16.63
2018-04-01T06:28:29.695Z,21.13
2018-04-01T06:30:56.796Z,20.93
2018-04-01T06:33:25.604Z,20.70
2018-04-01T06:35:54.757Z,17.77
2018-04-01T06:38:22.104Z,16.43
2018-04-01T06:40:49.611Z,14.03
2018-04-01T06:43:16.909Z,17.33
2018-04-01T06:45:44.176Z,13.00
2018-04-01T06:48:13.053Z,15.73
2018-04-01T06:50:40.415Z,12.97
2018-04-01T06:53:08.488Z,15.83
2018-04-01T06:55:35.833Z,13.90
2018-04-01T06:58:02.952Z,15.93
2018-04-01T07:00:30.042Z,14.10
2018-04-01T07:02:57.176Z,15.13
2018-04-01T07:05:24.420Z,13.30
2018-04-01T07:07:51.510Z,12.50
2018-04-01T07:10:19.679Z,13.40
2018-04-01T07:12:46.777Z,14.73
2018-04-01T07:15:13.896Z,12.70
2018-04-01T07:17:41.764Z,14.27
2018-04-01T07:20:09.668Z,11.97
2018-04-01T07:22:36.772Z,17.23
2018-04-01T07:25:04.660Z,13.70
2018-04-01T07:27:31.843Z,13.53
2018-04-01T07:29:58.978Z,14.67
2018-04-01T07:32:26.095Z,13.40
2018-04-01T07:34:53.960Z,15.20
2018-04-01T07:37:21.872Z,12.00
2018-04-01T07:39:48.967Z,8.00
2018-04-01T07:42:16.906Z,14.90
2018-04-01T07:44:43.980Z,8.90
2018-04-01T07:47:11.077Z,13.10
2018-04-01T07:49:38.206Z,14.83
2018-04-01T07:52:05.311Z,13.00
2018-04-01T07:54:33.201Z,13.57
2018-04-01T07:57:01.068Z,15.33
2018-04-01T07:59:28.933Z,14.23
2018-04-01T08:01:56.816Z,15.30
2018-04-01T08:04:24.685Z,12.63
2018-04-01T08:06:52.176Z,14.67
2018-04-01T08:09:19.542Z,14.10
2018-04-01T08:11:49.220Z,11.50
2018-04-01T08:14:16.807Z,14.93
2018-04-01T08:16:44.073Z,13.33
2018-04-01T08:19:11.195Z,14.67
2018-04-01T08:21:38.293Z,13.93
2018-04-01T08:24:05.484Z,13.67
2018-04-01T08:26:32.582Z,11.60
2018-04-01T08:28:59.706Z,12.47
2018-04-01T08:31:26.808Z,11.40
2018-04-01T08:33:54.668Z,12.67
2018-04-01T08:36:22.555Z,10.77
2018-04-01T08:38:49.655Z,9.70
2018-04-01T08:41:17.007Z,10.27
2018-04-01T08:43:44.314Z,10.30
2018-04-01T08:46:11.615Z,10.20
2018-04-01T08:48:38.949Z,10.13
2018-04-01T08:51:06.323Z,10.03
2018-04-01T08:53:33.677Z,10.07
2018-04-01T08:56:00.979Z,8.97
2018-04-01T08:58:28.382Z,10.83
2018-04-01T09:00:55.741Z,8.33
2018-04-01T09:03:23.602Z,8.87
2018-04-01T09:05:50.859Z,8.43
2018-04-01T09:08:18.219Z,7.70
2018-04-01T09:10:45.575Z,11.03
2018-04-01T09:13:14.307Z,9.80
2018-04-01T09:15:41.428Z,6.50
2018-04-01T09:18:08.658Z,8.83
2018-04-01T09:20:35.796Z,12.60
2018-04-01T09:23:03.046Z,8.83
2018-04-01T09:25:30.136Z,6.80
2018-04-01T09:27:58.024Z,7.13
2018-04-01T09:30:25.631Z,6.20
2018-04-01T09:32:53.668Z,8.40
2018-04-01T09:35:20.764Z,9.70
2018-04-01T09:37:48.711Z,9.00
2018-04-01T09:40:17.332Z,14.90
2018-04-01T09:42:44.430Z,12.80
2018-04-01T09:45:11.548Z,11.93
2018-04-01T09:47:39.416Z,11.13
2018-04-01T09:50:07.322Z,10.87
2018-04-01T09:52:34.495Z,13.27
2018-04-01T09:55:01.636Z,12.33
2018-04-01T09:57:28.736Z,10.57
2018-04-01T09:59:56.603Z,11.23
2018-04-01T10:02:24.990Z,13.40
2018-04-01T10:05:09.351Z,13.43
2018-04-01T10:07:36.937Z,12.40
2018-04-01T10:10:04.522Z,14.90
2018-04-01T10:12:32.149Z,12.80
2018-04-01T10:14:59.742Z,9.30
2018-04-01T10:17:27.350Z,8.50
2018-04-01T10:19:55.041Z,9.77
2018-04-01T10:22:22.661Z,8.30
2018-04-01T10:24:50.360Z,8.20
2018-04-01T10:27:18.006Z,8.67
2018-04-01T10:29:45.620Z,7.93
2018-04-01T10:32:14.358Z,9.87
2018-04-01T10:34:41.969Z,8.03
2018-04-01T10:37:09.556Z,7.03
2018-04-01T10:39:37.176Z,14.03
2018-04-01T10:42:04.768Z,11.57
2018-04-01T10:44:33.118Z,6.83
2018-04-01T10:47:00.736Z,9.70
2018-04-01T10:49:28.335Z,6.50
2018-04-01T10:51:56.716Z,7.87
2018-04-01T10:54:23.819Z,6.13
2018-04-01T10:56:50.945Z,8.73
2018-04-01T10:59:18.804Z,5.90
2018-04-01T11:01:52.257Z,8.67
2018-04-01T11:04:20.179Z,8.33
2018-04-01T11:06:48.044Z,10.07
2018-04-01T11:09:15.936Z,11.73
2018-04-01T11:11:43.032Z,8.50
2018-04-01T11:14:10.163Z,9.20
2018-04-01T11:16:37.255Z,10.80
2018-04-01T11:19:05.741Z,13.90
2018-04-01T11:21:32.885Z,13.93
2018-04-01T11:24:00.749Z,15.83
2018-04-01T11:26:28.799Z,15.27
2018-04-01T11:28:55.955Z,14.87
2018-04-01T11:31:23.303Z,16.60
2018-04-01T11:33:50.405Z,22.80
2018-04-01T11:36:17.533Z,21.17
2018-04-01T11:38:45.402Z,20.73
2018-04-01T11:41:13.301Z,18.37
2018-04-01T11:43:40.399Z,11.57
2018-04-01T11:46:07.500Z,17.70
2018-04-01T11:48:34.640Z,13.47
2018-04-01T11:51:01.746Z,16.13
2018-04-01T11:53:28.891Z,20.33
2018-04-01T11:55:55.990Z,15.50
2018-04-01T11:58:23.120Z,20.37
2018-04-01T12:00:50.215Z,19.47
2018-04-01T12:03:17.309Z,24.17
2018-04-01T12:05:45.195Z,22.00
2018-04-01T12:08:12.309Z,16.87
2018-04-01T12:10:40.248Z,15.60
2018-04-01T12:13:07.349Z,16.77
2018-04-01T12:15:34.471Z,15.87
2018-04-01T12:18:01.571Z,16.57
2018-04-01T12:20:28.700Z,15.17
2018-04-01T12:22:55.800Z,15.67
2018-04-01T12:25:22.894Z,13.30
2018-04-01T12:27:50.010Z,10.90
2018-04-01T12:30:17.115Z,13.53
2018-04-01T12:32:44.231Z,13.10
2018-04-01T12:35:12.090Z,17.63
2018-04-01T12:37:39.979Z,13.63
2018-04-01T12:40:07.075Z,11.57
2018-04-01T12:42:34.174Z,11.60
2018-04-01T12:45:01.296Z,17.80
2018-04-01T12:47:28.401Z,11.73
2018-04-01T12:49:55.591Z,14.43
2018-04-01T12:52:22.680Z,14.40
2018-04-01T12:54:49.854Z,14.07
2018-04-01T12:57:16.990Z,11.83
2018-04-01T12:59:44.108Z,14.10
2018-04-01T13:02:11.988Z,16.53
2018-04-01T13:04:39.086Z,17.53
2018-04-01T13:07:06.214Z,12.90
2018-04-01T13:09:33.312Z,14.50
2018-04-01T13:12:01.214Z,18.90
2018-04-01T13:14:28.308Z,13.67
2018-04-01T13:16:55.462Z,13.20
2018-04-01T13:19:22.753Z,14.50
2018-04-01T13:21:50.378Z,14.47
2018-04-01T13:24:17.536Z,16.33
2018-04-01T13:26:44.726Z,14.53
2018-04-01T13:29:12.075Z,18.67
2018-04-01T13:31:39.195Z,15.00
2018-04-01T13:34:06.325Z,14.47
2018-04-01T13:36:33.478Z,13.10
2018-04-01T13:39:00.571Z,15.07
2018-04-01T13:41:27.683Z,13.20
2018-04-01T13:43:54.781Z,13.77
2018-04-01T13:46:22.328Z,15.30
2018-04-01T13:48:49.430Z,18.80
2018-04-01T13:51:16.875Z,12.90
2018-04-01T13:53:45.636Z,11.97
2018-04-01T13:56:12.732Z,14.13
2018-04-01T13:58:39.857Z,14.47
2018-04-01T14:01:06.962Z,17.80
2018-04-01T14:03:34.104Z,17.27
2018-04-01T14:06:02.355Z,11.77
2018-04-01T14:08:30.247Z,17.67
2018-04-01T14:10:58.135Z,12.30
2018-04-01T14:13:25.223Z,16.87
2018-04-01T14:15:52.355Z,18.30
2018-04-01T14:18:19.468Z,15.17
2018-04-01T14:20:47.367Z,16.07
2018-04-01T14:23:14.500Z,14.20
2018-04-01T14:25:41.600Z,14.90
2018-04-01T14:28:08.728Z,13.87
2018-04-01T14:30:35.834Z,12.03
2018-04-01T14:33:02.959Z,11.77
2018-04-01T14:35:30.047Z,12.00
2018-04-01T14:37:57.184Z,14.97
2018-04-01T14:40:24.288Z,17.83
2018-04-01T14:42:51.383Z,13.57
2018-04-01T14:45:18.568Z,13.03
2018-04-01T14:47:45.670Z,11.50
2018-04-01T14:50:13.616Z,12.80
2018-04-01T14:52:40.713Z,14.40
2018-04-01T14:55:07.854Z,14.57
2018-04-01T14:57:34.951Z,18.30
2018-04-01T15:00:02.064Z,9.33
2018-04-01T15:02:29.192Z,9.80
2018-04-01T15:04:57.097Z,17.73
2018-04-01T15:07:24.217Z,15.87
2018-04-01T15:09:51.316Z,14.50
2018-04-01T15:12:18.458Z,17.90
2018-04-01T15:14:45.559Z,18.30
2018-04-01T15:17:12.651Z,14.27
2018-04-01T15:19:39.782Z,14.37
2018-04-01T15:22:06.886Z,13.63
2018-04-01T15:24:34.779Z,18.07
2018-04-01T15:27:01.892Z,15.73
2018-04-01T15:29:29.024Z,15.20
2018-04-01T15:31:56.132Z,13.80
2018-04-01T15:34:23.224Z,13.67
2018-04-01T15:36:50.343Z,17.33
2018-04-01T15:39:17.436Z,13.73
2018-04-01T15:41:45.324Z,14.90
2018-04-01T15:44:13.184Z,13.27
2018-04-01T15:46:41.078Z,14.43
2018-04-01T15:49:08.185Z,12.83
2018-04-01T15:51:35.308Z,12.90
2018-04-01T15:54:02.404Z,12.13
2018-04-01T15:56:30.296Z,11.63
2018-04-01T15:58:57.396Z,11.83
2018-04-01T16:01:24.516Z,14.90
2018-04-01T16:03:51.663Z,10.80
2018-04-01T16:06:18.760Z,11.23
2018-04-01T16:08:46.698Z,10.50
2018-04-01T16:11:13.796Z,12.30
2018-04-01T16:13:40.920Z,4.30
2018-04-01T16:16:08.017Z,8.53
2018-04-01T16:18:35.105Z,7.40
2018-04-01T16:21:02.223Z,7.63
2018-04-01T16:23:29.341Z,8.93
2018-04-01T16:25:56.471Z,13.67
2018-04-01T16:28:24.461Z,7.80
2018-04-01T16:30:51.604Z,5.10
2018-04-01T16:33:19.920Z,4.63
2018-04-01T16:35:47.965Z,3.73
2018-04-01T16:38:15.059Z,4.30
2018-04-01T16:40:42.189Z,4.60
2018-04-01T16:43:09.280Z,4.00
2018-04-01T16:45:36.392Z,7.17
2018-04-01T16:48:03.523Z,6.60
2018-04-01T16:50:30.628Z,3.40
2018-04-01T16:52:57.745Z,4.23
2018-04-01T16:55:25.010Z,6.80
2018-04-01T16:57:52.144Z,9.40
2018-04-01T17:00:19.243Z,6.47
2018-04-01T17:02:47.138Z,5.77
2018-04-01T17:05:14.239Z,7.40
2018-04-01T17:07:42.111Z,5.37
2018-04-01T17:10:09.240Z,5.50
2018-04-01T17:12:37.113Z,8.10
2018-04-01T17:15:04.244Z,4.93
2018-04-01T17:17:31.364Z,9.37
2018-04-01T17:19:58.504Z,7.23
2018-04-01T17:22:25.606Z,9.20
2018-04-01T17:24:52.735Z,4.20
2018-04-01T17:27:19.840Z,5.17
2018-04-01T17:29:47.713Z,5.10
2018-04-01T17:32:14.836Z,10.27
2018-04-01T17:34:42.709Z,6.40
2018-04-01T17:37:10.606Z,6.53
2018-04-01T17:39:37.704Z,7.90
2018-04-01T17:42:04.841Z,4.97
2018-04-01T17:44:31.939Z,10.20
2018-04-01T17:46:59.799Z,7.10
2018-04-01T17:49:27.815Z,6.30
2018-04-01T17:51:54.922Z,5.80
2018-04-01T17:54:22.807Z,7.90
2018-04-01T17:56:49.900Z,4.67
2018-04-01T17:59:17.025Z,8.80
2018-04-01T18:01:44.113Z,5.40
2018-04-01T18:04:11.224Z,6.40
2018-04-01T18:06:38.340Z,5.30
2018-04-01T18:09:05.428Z,7.00
2018-04-01T18:11:32.545Z,7.03
2018-04-01T18:13:59.641Z,8.47
2018-04-01T18:16:26.771Z,7.40
2018-04-01T18:18:54.063Z,6.00
2018-04-01T18:21:21.396Z,8.40
2018-04-01T18:23:48.506Z,8.37
2018-04-01T18:26:15.637Z,6.17
2018-04-01T18:28:43.503Z,6.33
2018-04-01T18:31:11.362Z,6.83
2018-04-01T18:33:39.250Z,8.40
2018-04-01T18:36:06.379Z,7.87
2018-04-01T18:38:34.272Z,12.03
2018-04-01T18:41:01.373Z,7.00
2018-04-01T18:43:29.256Z,6.80
2018-04-01T18:45:57.128Z,7.63
2018-04-01T18:48:25.017Z,9.00
2018-04-01T18:50:52.117Z,10.77
2018-04-01T18:53:19.245Z,7.80
2018-04-01T18:55:46.344Z,10.83
2018-04-01T18:58:14.237Z,7.47
2018-04-01T19:00:41.346Z,7.73
2018-04-01T19:03:08.472Z,9.70
2018-04-01T19:05:35.564Z,8.67
2018-04-01T19:08:03.431Z,10.90
2018-04-01T19:10:31.312Z,10.13
2018-04-01T19:12:58.401Z,9.80
2018-04-01T19:15:25.524Z,9.43
2018-04-01T19:17:53.121Z,10.27
2018-04-01T19:20:20.716Z,11.87
2018-04-01T19:22:49.093Z,12.07
2018-04-01T19:25:17.452Z,15.33
2018-04-01T19:27:45.069Z,14.33
2018-04-01T19:30:12.677Z,11.90
2018-04-01T19:32:40.296Z,25.33
2018-04-01T19:35:07.929Z,24.97
2018-04-01T19:37:35.532Z,29.30
2018-04-01T19:40:03.195Z,29.93
2018-04-01T19:42:30.782Z,10.40
2018-04-01T19:44:59.147Z,19.50
2018-04-01T19:47:26.759Z,17.50
2018-04-01T19:49:54.382Z,17.63
2018-04-01T19:52:22.765Z,17.97
2018-04-01T19:54:50.346Z,21.37
2018-04-01T19:57:17.964Z,18.03
2018-04-01T19:59:45.549Z,18.17
2018-04-01T20:02:13.948Z,14.70
2018-04-01T20:04:41.535Z,16.27
2018-04-01T20:07:09.151Z,27.67
2018-04-01T20:09:37.575Z,19.77
2018-04-01T20:12:05.172Z,20.10
2018-04-01T20:14:32.797Z,24.50
2018-04-01T20:17:00.488Z,24.87
2018-04-01T20:19:28.892Z,26.40
2018-04-01T20:24:29.048Z,22.77
2018-04-01T20:26:56.647Z,19.47
2018-04-01T20:29:24.244Z,21.43
2018-04-01T20:31:51.868Z,26.90
2018-04-01T20:34:19.475Z,33.17
2018-04-01T20:36:47.873Z,41.10
2018-04-01T20:39:15.505Z,30.37
2018-04-01T20:41:43.131Z,36.73
2018-04-01T20:44:10.720Z,44.80
2018-04-01T20:46:38.339Z,50.07
2018-04-01T20:49:08.301Z,58.00
2018-04-01T20:51:36.143Z,55.80
2018-04-01T20:54:03.726Z,49.67
2018-04-01T20:56:31.372Z,49.27
2018-04-01T20:58:59.577Z,52.17
2018-04-01T21:01:27.290Z,62.73
2018-04-01T21:03:54.931Z,67.77
2018-04-01T21:06:22.734Z,46.77
2018-04-01T21:08:50.602Z,52.50
2018-04-01T21:11:18.461Z,42.13
2018-04-01T21:13:46.333Z,55.27
2018-04-01T21:16:14.080Z,45.40
2018-04-01T21:18:41.810Z,45.40
2018-04-01T21:21:09.584Z,57.63
2018-04-01T21:23:37.392Z,49.23
2018-04-01T21:26:05.023Z,46.70
2018-04-01T21:28:32.734Z,42.43
2018-04-01T21:31:00.365Z,42.87
2018-04-01T21:33:27.952Z,41.07
2018-04-01T21:35:55.682Z,44.83
2018-04-01T21:38:23.281Z,27.20
2018-04-01T21:40:50.877Z,55.57
2018-04-01T21:43:18.576Z,38.70
2018-04-01T21:45:46.614Z,42.33
2018-04-01T21:48:14.280Z,44.23
2018-04-01T21:50:41.883Z,38.73
2018-04-01T21:53:09.508Z,40.53
2018-04-01T21:55:37.099Z,36.13
2018-04-01T21:58:05.386Z,31.57
2018-04-01T22:00:33.133Z,31.97
2018-04-01T22:03:00.818Z,37.70
2018-04-01T22:05:28.431Z,40.13
2018-04-01T22:07:56.055Z,36.27
2018-04-01T22:10:24.562Z,39.13
2018-04-01T22:12:52.458Z,36.57
2018-04-01T22:15:20.123Z,34.33
2018-04-01T22:17:48.712Z,39.93
2018-04-01T22:20:17.751Z,31.93
2018-04-01T22:22:58.056Z,35.33
2018-04-01T22:25:25.652Z,33.30
2018-04-01T22:27:54.065Z,38.40
2018-04-01T22:30:21.676Z,34.30
2018-04-01T22:32:49.583Z,39.23
2018-04-01T22:35:17.972Z,39.87
2018-04-01T22:37:45.559Z,36.57
2018-04-01T22:40:13.176Z,43.33
2018-04-01T22:42:41.544Z,39.00
2018-04-01T22:45:09.928Z,42.23
2018-04-01T22:47:38.284Z,36.20
2018-04-01T22:50:06.672Z,43.83
2018-04-01T22:52:34.271Z,33.17
2018-04-01T22:55:01.884Z,34.47
2018-04-01T22:57:31.010Z,43.87
2018-04-01T22:59:59.383Z,34.20
2018-04-01T23:02:27.769Z,40.20
2018-04-01T23:04:56.133Z,43.70
2018-04-01T23:07:24.550Z,47.90
2018-04-01T23:09:52.144Z,39.27
2018-04-01T23:12:19.760Z,36.37
2018-04-01T23:14:47.360Z,47.80
2018-04-01T23:17:14.983Z,44.00
2018-04-01T23:19:42.588Z,37.57
2018-04-01T23:22:10.184Z,43.80
2018-04-01T23:24:38.568Z,35.23
2018-04-01T23:27:06.923Z,40.07
2018-04-01T23:29:34.693Z,41.93
2018-04-01T23:32:02.301Z,34.80
2018-04-01T23:34:29.927Z,33.47
2018-04-01T23:36:58.287Z,38.47
2018-04-01T23:39:25.943Z,35.93
2018-04-01T23:41:53.535Z,29.50
2018-04-01T23:44:21.900Z,29.93
2018-04-01T23:46:50.296Z,36.83
2018-04-01T23:49:17.892Z,33.87
2018-04-01T23:51:45.520Z,27.40
2018-04-01T23:54:13.120Z,36.73
2018-04-01T23:56:40.747Z,32.23
2018-04-01T23:59:08.393Z,39.33
